createdAt,value
2018-10-16T00:02:13.511Z,10.20
2018-10-16T00:04:40.671Z,9.73
2018-10-16T00:07:07.864Z,10.20
2018-10-16T00:09:34.994Z,10.17
2018-10-16T00:12:03.369Z,9.80
2018-10-16T00:14:30.800Z,9.40
2018-10-16T00:16:58.314Z,10.03
2018-10-16T00:19:25.528Z,9.60
2018-10-16T00:21:52.872Z,10.27
2018-10-16T00:24:20.326Z,9.70
2018-10-16T00:26:50.277Z,10.10
2018-10-16T00:29:17.505Z,10.33
2018-10-16T00:31:44.703Z,10.30
2018-10-16T00:34:11.867Z,10.07
2018-10-16T00:36:38.961Z,10.07
2018-10-16T00:39:09.302Z,9.73
2018-10-16T00:41:37.139Z,10.13
2018-10-16T00:44:04.359Z,9.47
2018-10-16T00:46:31.505Z,9.57
2018-10-16T00:48:58.654Z,10.00
2018-10-16T00:51:25.776Z,9.70
2018-10-16T00:53:52.914Z,9.60
2018-10-16T00:56:20.014Z,9.27
2018-10-16T00:58:47.198Z,9.10
2018-10-16T01:01:17.739Z,10.07
2018-10-16T01:03:44.883Z,9.50
2018-10-16T01:06:12.010Z,9.30
2018-10-16T01:08:39.198Z,9.60
2018-10-16T01:11:09.817Z,9.70
2018-10-16T01:13:36.985Z,9.43
2018-10-16T01:16:04.465Z,10.20
2018-10-16T01:18:31.849Z,9.67
2018-10-16T01:20:58.944Z,10.50
2018-10-16T01:23:26.148Z,10.27
2018-10-16T01:25:53.279Z,9.57
2018-10-16T01:28:20.429Z,9.77
2018-10-16T01:30:47.599Z,10.20
2018-10-16T01:33:14.737Z,9.87
2018-10-16T01:35:41.878Z,9.90
2018-10-16T01:38:09.023Z,9.80
2018-10-16T01:40:36.196Z,10.03
2018-10-16T01:43:03.325Z,10.10
2018-10-16T01:45:30.490Z,10.10
2018-10-16T01:47:57.594Z,10.13
2018-10-16T01:50:24.731Z,10.33
2018-10-16T01:52:51.878Z,10.63
2018-10-16T01:55:19.025Z,10.53
2018-10-16T01:57:46.170Z,10.87
2018-10-16T02:00:13.314Z,10.77
2018-10-16T02:02:40.482Z,10.50
2018-10-16T02:05:07.926Z,11.33
2018-10-16T02:07:35.058Z,10.03
2018-10-16T02:10:02.222Z,9.57
2018-10-16T02:12:29.341Z,9.10
2018-10-16T02:14:56.548Z,11.10
2018-10-16T02:17:23.633Z,9.50
2018-10-16T02:19:50.922Z,10.03
2018-10-16T02:22:18.083Z,9.70
2018-10-16T02:24:45.227Z,9.97
2018-10-16T02:27:12.431Z,10.27
2018-10-16T02:29:39.557Z,9.33
2018-10-16T02:32:06.743Z,10.30
2018-10-16T02:34:33.870Z,10.00
2018-10-16T02:37:01.013Z,9.40
2018-10-16T02:39:28.189Z,10.37
2018-10-16T02:41:55.358Z,10.47
2018-10-16T02:44:22.495Z,9.83
2018-10-16T02:46:49.689Z,10.00
2018-10-16T02:49:16.805Z,9.53
2018-10-16T02:51:43.934Z,10.40
2018-10-16T02:54:11.104Z,10.60
2018-10-16T02:56:38.229Z,10.10
2018-10-16T02:59:05.415Z,9.80
2018-10-16T03:01:32.535Z,10.07
2018-10-16T03:03:59.680Z,10.03
2018-10-16T03:06:26.802Z,9.20
2018-10-16T03:08:53.965Z,10.57
2018-10-16T03:11:21.106Z,9.50
2018-10-16T03:13:48.246Z,9.80
2018-10-16T03:16:15.353Z,11.20
2018-10-16T03:18:42.503Z,10.33
2018-10-16T03:21:09.736Z,10.40
2018-10-16T03:23:36.913Z,10.23
2018-10-16T03:26:04.171Z,10.30
2018-10-16T03:28:31.371Z,10.20
2018-10-16T03:30:58.535Z,9.73
2018-10-16T03:33:25.683Z,11.93
2018-10-16T03:35:52.856Z,10.27
2018-10-16T03:38:20.010Z,10.17
2018-10-16T03:40:47.154Z,10.70
2018-10-16T03:43:14.278Z,10.10
2018-10-16T03:45:41.432Z,9.87
2018-10-16T03:48:08.656Z,10.17
2018-10-16T03:50:35.786Z,9.87
2018-10-16T03:53:02.906Z,9.53
2018-10-16T03:55:30.183Z,9.97
2018-10-16T03:57:57.285Z,9.53
2018-10-16T04:00:24.438Z,10.00
2018-10-16T04:02:51.558Z,10.50
2018-10-16T04:05:19.677Z,10.37
2018-10-16T04:07:46.889Z,11.07
2018-10-16T04:10:14.114Z,10.43
2018-10-16T04:12:41.248Z,10.10
2018-10-16T04:15:09.387Z,9.57
2018-10-16T04:17:37.190Z,10.83
2018-10-16T04:20:04.498Z,10.13
2018-10-16T04:22:31.826Z,10.30
2018-10-16T04:24:59.165Z,10.50
2018-10-16T04:27:26.319Z,10.40
2018-10-16T04:29:53.451Z,9.50
2018-10-16T04:32:20.612Z,9.90
2018-10-16T04:34:47.767Z,10.17
2018-10-16T04:37:14.929Z,10.43
2018-10-16T04:39:42.125Z,10.10
2018-10-16T04:42:09.247Z,10.40
2018-10-16T04:44:36.383Z,9.60
2018-10-16T04:47:03.942Z,10.10
2018-10-16T04:49:31.074Z,9.90
2018-10-16T04:51:58.215Z,9.60
2018-10-16T04:54:25.354Z,11.20
2018-10-16T04:56:52.513Z,10.93
2018-10-16T04:59:19.642Z,10.43
2018-10-16T05:01:46.826Z,11.00
2018-10-16T05:04:14.260Z,10.43
2018-10-16T05:06:41.370Z,10.60
2018-10-16T05:09:08.881Z,10.50
2018-10-16T05:11:41.712Z,11.10
2018-10-16T05:14:08.883Z,10.63
2018-10-16T05:16:36.034Z,10.73
2018-10-16T05:19:03.229Z,11.30
2018-10-16T05:21:30.392Z,11.03
2018-10-16T05:23:57.668Z,11.20
2018-10-16T05:26:25.408Z,12.80
2018-10-16T05:28:52.938Z,12.93
2018-10-16T05:31:20.314Z,10.80
2018-10-16T05:33:47.473Z,10.97
2018-10-16T05:36:14.807Z,11.30
2018-10-16T05:38:42.224Z,12.17
2018-10-16T05:41:09.782Z,11.93
2018-10-16T05:43:37.030Z,12.43
2018-10-16T05:46:04.201Z,13.70
2018-10-16T05:48:31.413Z,11.50
2018-10-16T05:50:58.833Z,11.50
2018-10-16T05:53:26.094Z,11.30
2018-10-16T05:56:02.380Z,11.63
2018-10-16T05:58:29.772Z,11.30
2018-10-16T06:00:56.987Z,11.27
2018-10-16T06:03:24.304Z,11.30
2018-10-16T06:05:51.554Z,11.10
2018-10-16T06:08:18.723Z,11.10
2018-10-16T06:10:45.942Z,10.73
2018-10-16T06:13:13.091Z,13.40
2018-10-16T06:15:40.414Z,11.03
2018-10-16T06:18:07.566Z,11.10
2018-10-16T06:20:34.820Z,11.60
2018-10-16T06:23:02.000Z,10.53
2018-10-16T06:25:29.698Z,10.30
2018-10-16T06:27:57.005Z,10.90
2018-10-16T06:30:24.623Z,10.43
2018-10-16T06:32:51.967Z,11.70
2018-10-16T06:35:19.175Z,10.57
2018-10-16T06:37:46.366Z,12.70
2018-10-16T06:40:13.644Z,11.10
2018-10-16T06:42:40.894Z,15.40
2018-10-16T06:45:09.246Z,15.33
2018-10-16T06:47:36.705Z,11.73
2018-10-16T06:50:04.938Z,11.50
2018-10-16T06:52:32.179Z,11.07
2018-10-16T06:54:59.417Z,11.03
2018-10-16T06:57:26.585Z,10.83
2018-10-16T06:59:53.838Z,10.90
2018-10-16T07:02:21.088Z,11.03
2018-10-16T07:04:48.705Z,11.43
2018-10-16T07:07:16.131Z,11.23
2018-10-16T07:09:43.404Z,11.20
2018-10-16T07:12:11.165Z,11.77
2018-10-16T07:14:38.442Z,11.60
2018-10-16T07:17:05.677Z,10.80
2018-10-16T07:19:32.913Z,12.10
2018-10-16T07:22:00.443Z,11.60
2018-10-16T07:24:27.711Z,11.60
2018-10-16T07:26:55.231Z,11.30
2018-10-16T07:29:22.384Z,11.53
2018-10-16T07:31:49.637Z,12.97
2018-10-16T07:34:16.969Z,13.30
2018-10-16T07:36:44.130Z,11.73
2018-10-16T07:39:12.721Z,12.33
2018-10-16T07:41:40.413Z,12.13
2018-10-16T07:44:07.970Z,12.73
2018-10-16T07:46:35.236Z,11.77
2018-10-16T07:49:02.447Z,12.47
2018-10-16T07:51:29.646Z,11.43
2018-10-16T07:53:57.006Z,13.67
2018-10-16T07:56:24.190Z,12.33
2018-10-16T07:58:53.072Z,11.87
2018-10-16T08:01:21.354Z,12.10
2018-10-16T08:03:48.599Z,12.00
2018-10-16T08:06:15.856Z,12.73
2018-10-16T08:08:43.086Z,11.90
2018-10-16T08:11:10.243Z,11.37
2018-10-16T08:13:37.566Z,13.73
2018-10-16T08:16:05.369Z,12.90
2018-10-16T08:18:32.661Z,13.73
2018-10-16T08:21:00.041Z,11.80
2018-10-16T08:23:27.288Z,11.37
2018-10-16T08:25:54.650Z,11.97
2018-10-16T08:28:22.005Z,12.50
2018-10-16T08:30:49.360Z,12.17
2018-10-16T08:33:16.640Z,11.90
2018-10-16T08:35:43.915Z,11.57
2018-10-16T08:38:51.449Z,12.07
2018-10-16T08:41:20.032Z,11.70
2018-10-16T08:43:58.836Z,12.10
2018-10-16T08:46:37.389Z,11.83
2018-10-16T08:49:16.034Z,12.90
2018-10-16T08:51:45.781Z,13.20
2018-10-16T08:54:13.261Z,12.23
2018-10-16T08:56:40.532Z,13.70
2018-10-16T08:59:08.615Z,15.90
2018-10-16T09:01:35.832Z,13.67
2018-10-16T09:04:03.472Z,14.07
2018-10-16T09:06:31.135Z,13.63
2018-10-16T09:08:58.341Z,13.37
2018-10-16T09:11:25.585Z,12.90
2018-10-16T09:13:52.872Z,12.30
2018-10-16T09:16:20.661Z,11.87
2018-10-16T09:18:47.882Z,11.60
2018-10-16T09:21:15.158Z,13.10
2018-10-16T09:23:42.539Z,13.40
2018-10-16T09:26:09.772Z,12.20
2018-10-16T09:28:37.039Z,11.40
2018-10-16T09:31:04.611Z,12.57
2018-10-16T09:33:31.988Z,12.07
2018-10-16T09:35:59.239Z,11.00
2018-10-16T09:38:26.775Z,11.70
2018-10-16T09:40:53.949Z,11.00
2018-10-16T09:43:21.451Z,9.80
2018-10-16T09:45:48.718Z,10.70
2018-10-16T09:48:15.882Z,10.30
2018-10-16T09:50:43.229Z,9.87
2018-10-16T09:53:10.606Z,11.07
2018-10-16T09:55:37.919Z,9.53
2018-10-16T09:58:05.183Z,10.50
2018-10-16T10:00:38.324Z,11.50
2018-10-16T10:03:05.719Z,9.63
2018-10-16T10:05:33.437Z,9.00
2018-10-16T10:08:00.604Z,10.00
2018-10-16T10:10:27.791Z,10.20
2018-10-16T10:12:55.033Z,8.60
2018-10-16T10:15:22.353Z,9.20
2018-10-16T10:17:49.622Z,8.80
2018-10-16T10:20:17.027Z,14.00
2018-10-16T10:22:44.229Z,11.17
2018-10-16T10:25:11.788Z,10.20
2018-10-16T10:27:40.191Z,8.87
2018-10-16T10:30:09.566Z,8.70
2018-10-16T10:32:36.779Z,9.20
2018-10-16T10:35:05.052Z,8.43
2018-10-16T10:37:32.351Z,9.53
2018-10-16T10:39:59.630Z,7.90
2018-10-16T10:42:26.893Z,8.73
2018-10-16T10:44:54.798Z,7.87
2018-10-16T10:47:22.118Z,7.87
2018-10-16T10:49:49.385Z,7.33
2018-10-16T10:52:16.526Z,7.67
2018-10-16T10:54:43.740Z,8.77
2018-10-16T10:57:11.151Z,8.20
2018-10-16T10:59:38.260Z,6.90
2018-10-16T11:02:05.526Z,7.40
2018-10-16T11:04:32.717Z,8.17
2018-10-16T11:07:00.206Z,8.03
2018-10-16T11:09:27.349Z,8.00
2018-10-16T11:11:55.912Z,7.20
2018-10-16T11:14:24.165Z,7.90
2018-10-16T11:16:51.434Z,6.77
2018-10-16T11:19:19.023Z,7.87
2018-10-16T11:21:46.350Z,7.50
2018-10-16T11:24:14.862Z,7.50
2018-10-16T11:26:42.178Z,7.37
2018-10-16T11:29:09.505Z,6.33
2018-10-16T11:31:37.102Z,7.37
2018-10-16T11:34:04.731Z,6.60
2018-10-16T11:36:31.994Z,7.43
2018-10-16T11:38:59.265Z,7.60
2018-10-16T11:41:26.437Z,7.83
2018-10-16T11:43:53.670Z,6.97
2018-10-16T11:46:20.861Z,6.57
2018-10-16T11:48:48.251Z,7.30
2018-10-16T11:51:15.643Z,7.00
2018-10-16T11:53:43.116Z,6.73
2018-10-16T11:56:10.669Z,6.57
2018-10-16T11:58:37.953Z,7.63
2018-10-16T12:01:05.397Z,7.10
2018-10-16T12:03:32.739Z,7.97
2018-10-16T12:06:00.625Z,7.23
2018-10-16T12:08:27.872Z,6.30
2018-10-16T12:10:55.123Z,7.10
2018-10-16T12:13:22.401Z,6.77
2018-10-16T12:15:49.628Z,6.43
2018-10-16T12:18:51.627Z,6.90
2018-10-16T12:21:22.073Z,7.00
2018-10-16T12:23:50.159Z,7.00
2018-10-16T12:26:18.280Z,7.20
2018-10-16T12:28:45.735Z,7.03
2018-10-16T12:31:12.897Z,6.70
2018-10-16T12:33:40.138Z,6.90
2018-10-16T12:36:07.344Z,5.57
2018-10-16T12:38:34.962Z,6.27
2018-10-16T12:41:02.192Z,6.80
2018-10-16T12:43:29.574Z,6.53
2018-10-16T12:45:57.474Z,6.23
2018-10-16T12:48:25.347Z,8.60
2018-10-16T12:50:52.766Z,6.13
2018-10-16T12:53:20.042Z,5.93
2018-10-16T12:55:47.449Z,7.30
2018-10-16T12:58:14.653Z,6.20
2018-10-16T13:00:42.079Z,7.13
2018-10-16T13:03:09.261Z,6.83
2018-10-16T13:05:36.488Z,14.00
2018-10-16T13:08:03.819Z,6.57
2018-10-16T13:10:31.065Z,6.67
2018-10-16T13:12:58.403Z,6.53
2018-10-16T13:15:25.682Z,7.10
2018-10-16T13:17:52.954Z,6.63
2018-10-16T13:20:20.237Z,6.50
2018-10-16T13:22:48.591Z,7.10
2018-10-16T13:25:16.085Z,6.60
2018-10-16T13:27:43.557Z,6.63
2018-10-16T13:30:12.785Z,6.40
2018-10-16T13:32:40.043Z,6.57
2018-10-16T13:35:10.877Z,7.43
2018-10-16T13:37:38.034Z,6.23
2018-10-16T13:40:06.131Z,7.90
2018-10-16T13:42:33.773Z,6.67
2018-10-16T13:45:01.843Z,7.27
2018-10-16T13:47:29.139Z,7.20
2018-10-16T13:49:56.595Z,7.63
2018-10-16T13:52:24.141Z,7.00
2018-10-16T13:54:51.326Z,6.67
2018-10-16T13:57:18.531Z,6.50
2018-10-16T13:59:46.243Z,7.90
2018-10-16T14:02:13.463Z,7.10
2018-10-16T14:04:40.762Z,6.30
2018-10-16T14:07:08.029Z,6.63
2018-10-16T14:09:35.332Z,8.27
2018-10-16T14:12:02.553Z,7.37
2018-10-16T14:14:29.986Z,7.17
2018-10-16T14:16:57.194Z,6.63
2018-10-16T14:19:24.435Z,6.70
2018-10-16T14:21:51.652Z,6.50
2018-10-16T14:24:18.977Z,7.90
2018-10-16T14:26:46.219Z,6.83
2018-10-16T14:29:13.534Z,6.90
2018-10-16T14:31:40.932Z,7.17
2018-10-16T14:34:08.449Z,6.53
2018-10-16T14:36:36.036Z,7.47
2018-10-16T14:39:05.463Z,8.00
2018-10-16T14:41:32.954Z,6.80
2018-10-16T14:44:00.240Z,8.50
2018-10-16T14:46:27.504Z,6.57
2018-10-16T14:48:54.852Z,7.00
2018-10-16T14:51:22.306Z,8.40
2018-10-16T14:53:49.756Z,7.10
2018-10-16T14:56:17.216Z,6.73
2018-10-16T14:58:44.382Z,7.13
2018-10-16T15:01:12.067Z,7.50
2018-10-16T15:03:39.312Z,6.90
2018-10-16T15:06:06.671Z,7.10
2018-10-16T15:08:33.903Z,9.50
2018-10-16T15:11:01.343Z,6.50
2018-10-16T15:13:28.841Z,6.50
2018-10-16T15:15:56.147Z,6.90
2018-10-16T15:18:23.866Z,7.80
2018-10-16T15:20:51.146Z,6.10
2018-10-16T15:23:19.785Z,6.03
2018-10-16T15:25:47.075Z,6.93
2018-10-16T15:28:14.519Z,6.70
2018-10-16T15:30:41.634Z,7.23
2018-10-16T15:33:08.978Z,6.60
2018-10-16T15:35:36.400Z,7.70
2018-10-16T15:38:03.995Z,6.20
2018-10-16T15:40:32.932Z,8.33
2018-10-16T15:43:00.276Z,6.43
2018-10-16T15:45:27.471Z,7.20
2018-10-16T15:47:54.669Z,6.80
2018-10-16T15:50:21.883Z,6.10
2018-10-16T15:52:49.081Z,6.17
2018-10-16T15:55:17.353Z,5.90
2018-10-16T15:57:44.796Z,7.03
2018-10-16T16:00:14.088Z,9.17
2018-10-16T16:02:41.503Z,11.10
2018-10-16T16:07:46.412Z,10.70
2018-10-16T16:10:15.442Z,9.20
2018-10-16T16:12:42.855Z,9.80
2018-10-16T16:15:11.202Z,12.50
2018-10-16T16:17:38.539Z,15.80
2018-10-16T16:20:07.040Z,12.30
2018-10-16T16:22:34.240Z,10.87
2018-10-16T16:25:01.672Z,10.30
2018-10-16T16:27:29.019Z,9.20
2018-10-16T16:29:56.346Z,9.00
2018-10-16T16:32:23.687Z,9.17
2018-10-16T16:34:50.906Z,9.53
2018-10-16T16:37:18.215Z,8.47
2018-10-16T16:39:45.590Z,13.20
2018-10-16T16:42:14.005Z,26.70
2018-10-16T16:44:41.204Z,16.27
2018-10-16T16:47:08.506Z,15.00
2018-10-16T16:49:35.765Z,12.70
2018-10-16T16:52:03.075Z,11.33
2018-10-16T16:54:30.462Z,10.97
2018-10-16T16:56:57.747Z,10.73
2018-10-16T16:59:24.949Z,9.40
2018-10-16T17:01:52.266Z,9.93
2018-10-16T17:04:19.577Z,12.20
2018-10-16T17:06:46.754Z,29.13
2018-10-16T17:09:14.116Z,21.93
2018-10-16T17:11:41.428Z,14.63
2018-10-16T17:14:08.895Z,12.13
2018-10-16T17:16:36.249Z,9.80
2018-10-16T17:19:03.962Z,16.43
2018-10-16T17:21:31.438Z,16.33
2018-10-16T17:23:58.826Z,13.83
2018-10-16T17:26:26.516Z,10.90
2018-10-16T17:28:53.635Z,8.90
2018-10-16T17:31:21.700Z,14.57
2018-10-16T17:33:49.063Z,14.63
2018-10-16T17:36:16.616Z,12.60
2018-10-16T17:38:43.859Z,10.43
2018-10-16T17:41:11.161Z,11.73
2018-10-16T17:43:38.813Z,11.63
2018-10-16T17:46:06.120Z,21.63
2018-10-16T17:48:33.518Z,25.03
2018-10-16T17:51:00.801Z,18.80
2018-10-16T17:53:28.134Z,11.83
2018-10-16T17:55:55.342Z,12.43
2018-10-16T17:58:22.574Z,16.90
2018-10-16T18:00:49.827Z,15.53
2018-10-16T18:03:22.339Z,11.88
2018-10-16T18:05:49.634Z,18.10
2018-10-16T18:08:16.828Z,12.87
2018-10-16T18:10:44.232Z,12.77
2018-10-16T18:13:11.536Z,20.30
2018-10-16T18:15:38.724Z,26.27
2018-10-16T18:18:06.352Z,13.90
2018-10-16T18:20:33.712Z,28.47
2018-10-16T18:23:01.083Z,8.40
2018-10-16T18:25:28.597Z,27.80
2018-10-16T18:27:57.920Z,20.50
2018-10-16T18:30:25.303Z,15.83
2018-10-16T18:32:52.562Z,13.03
2018-10-16T18:35:19.843Z,9.93
2018-10-16T18:37:47.143Z,10.60
2018-10-16T18:40:14.421Z,23.53
2018-10-16T18:42:41.866Z,9.90
2018-10-16T18:45:11.393Z,12.97
2018-10-16T18:47:38.579Z,9.03
2018-10-16T18:50:08.309Z,9.57
2018-10-16T18:52:35.485Z,9.47
2018-10-16T18:55:02.844Z,8.47
2018-10-16T18:57:29.998Z,8.43
2018-10-16T18:59:57.170Z,9.03
2018-10-16T19:02:24.377Z,9.27
2018-10-16T19:04:51.524Z,8.67
2018-10-16T19:07:18.676Z,8.13
2018-10-16T19:09:45.846Z,8.40
2018-10-16T19:12:12.975Z,8.13
2018-10-16T19:14:40.286Z,7.87
2018-10-16T19:17:07.470Z,8.20
2018-10-16T19:19:34.796Z,8.80
2018-10-16T19:22:02.294Z,9.00
2018-10-16T19:24:29.490Z,8.60
2018-10-16T19:26:56.737Z,8.90
2018-10-16T19:29:23.927Z,9.23
2018-10-16T19:31:51.168Z,9.10
2018-10-16T19:34:18.425Z,9.27
2018-10-16T19:36:45.565Z,8.87
2018-10-16T19:39:12.867Z,9.00
2018-10-16T19:41:40.480Z,9.70
2018-10-16T19:44:08.196Z,9.20
2018-10-16T19:46:37.398Z,9.07
2018-10-16T19:49:05.432Z,9.37
2018-10-16T19:51:34.233Z,9.30
2018-10-16T19:54:01.876Z,9.70
2018-10-16T19:56:29.134Z,9.37
2018-10-16T19:58:56.315Z,9.10
2018-10-16T20:01:25.037Z,8.73
2018-10-16T20:03:52.517Z,9.57
2018-10-16T20:06:19.838Z,9.13
2018-10-16T20:08:47.216Z,9.63
2018-10-16T20:11:14.331Z,9.20
2018-10-16T20:13:41.913Z,9.90
2018-10-16T20:16:09.825Z,8.37
2018-10-16T20:18:39.904Z,8.87
2018-10-16T20:21:09.911Z,9.43
2018-10-16T20:23:39.464Z,8.93
2018-10-16T20:26:07.386Z,9.87
2018-10-16T20:28:36.573Z,9.20
2018-10-16T20:31:04.673Z,10.03
2018-10-16T20:33:32.902Z,9.23
2018-10-16T20:38:41.316Z,9.43
2018-10-16T20:41:11.141Z,8.90
2018-10-16T20:43:38.921Z,8.80
2018-10-16T20:46:06.847Z,9.67
2018-10-16T20:48:34.075Z,9.97
2018-10-16T20:51:01.321Z,9.63
2018-10-16T20:53:28.596Z,10.90
2018-10-16T20:56:01.328Z,9.90
2018-10-16T20:58:28.938Z,10.60
2018-10-16T21:00:56.352Z,9.70
2018-10-16T21:03:23.581Z,10.67
2018-10-16T21:05:50.939Z,10.00
2018-10-16T21:08:17.982Z,10.00
2018-10-16T21:10:45.172Z,10.30
2018-10-16T21:13:12.360Z,10.37
2018-10-16T21:15:39.611Z,9.43
2018-10-16T21:18:06.797Z,9.63
2018-10-16T21:20:33.981Z,10.13
2018-10-16T21:23:01.266Z,10.50
2018-10-16T21:25:28.407Z,10.50
2018-10-16T21:27:55.604Z,9.50
2018-10-16T21:30:22.844Z,10.47
2018-10-16T21:32:50.004Z,9.77
2018-10-16T21:35:17.348Z,9.63
2018-10-16T21:37:44.437Z,8.93
2018-10-16T21:40:11.705Z,9.53
2018-10-16T21:42:38.828Z,10.20
2018-10-16T21:45:06.021Z,9.73
2018-10-16T21:47:33.262Z,9.70
2018-10-16T21:50:00.369Z,10.70
2018-10-16T21:52:27.564Z,9.90
2018-10-16T21:54:54.741Z,10.30
2018-10-16T21:57:21.982Z,10.03
2018-10-16T21:59:49.162Z,9.67
2018-10-16T22:02:22.072Z,10.03
2018-10-16T22:04:49.258Z,9.60
2018-10-16T22:07:16.504Z,9.87
2018-10-16T22:09:43.566Z,10.57
2018-10-16T22:12:10.736Z,10.60
2018-10-16T22:14:37.892Z,9.90
2018-10-16T22:17:05.245Z,9.90
2018-10-16T22:19:32.361Z,10.23
2018-10-16T22:21:59.541Z,9.27
2018-10-16T22:24:26.653Z,9.73
2018-10-16T22:26:53.839Z,10.20
2018-10-16T22:29:21.011Z,10.40
2018-10-16T22:31:48.144Z,10.20
2018-10-16T22:34:15.309Z,10.30
2018-10-16T22:36:42.500Z,10.57
2018-10-16T22:39:10.181Z,10.33
2018-10-16T22:41:37.727Z,11.13
2018-10-16T22:44:05.500Z,10.90
2018-10-16T22:46:32.646Z,10.20
2018-10-16T22:49:00.302Z,10.20
2018-10-16T22:51:27.454Z,11.10
2018-10-16T22:53:54.612Z,10.47
2018-10-16T22:56:21.818Z,11.17
2018-10-16T22:58:48.995Z,10.50
2018-10-16T23:01:16.122Z,11.37
2018-10-16T23:03:43.289Z,10.43
2018-10-16T23:06:10.451Z,10.70
2018-10-16T23:08:37.718Z,10.50
2018-10-16T23:11:05.094Z,10.63
2018-10-16T23:13:32.280Z,11.30
2018-10-16T23:15:59.404Z,10.70
2018-10-16T23:18:26.669Z,11.20
2018-10-16T23:20:53.856Z,10.57
2018-10-16T23:23:23.920Z,10.87
2018-10-16T23:25:51.112Z,11.10
2018-10-16T23:28:18.265Z,10.63
2018-10-16T23:30:45.440Z,11.33
2018-10-16T23:33:12.625Z,11.80
2018-10-16T23:35:39.796Z,10.40
2018-10-16T23:38:06.933Z,11.20
2018-10-16T23:40:34.102Z,10.70
2018-10-16T23:43:01.244Z,10.30
2018-10-16T23:45:28.381Z,10.80
2018-10-16T23:47:55.495Z,10.10
2018-10-16T23:50:22.809Z,10.40
2018-10-16T23:52:49.947Z,11.60
2018-10-16T23:55:17.244Z,10.50
2018-10-16T23:57:44.417Z,10.33
